createdAt,value
2023-03-24T00:00:36.625Z,67.63
2023-03-24T00:03:07.760Z,67.67
2023-03-24T00:05:38.661Z,67.28
2023-03-24T00:08:09.744Z,67.10
2023-03-24T00:10:40.668Z,67.03
2023-03-24T00:13:10.972Z,66.85
2023-03-24T00:15:45.599Z,66.70
2023-03-24T00:18:16.289Z,66.59
2023-03-24T00:20:48.882Z,66.49
2023-03-24T00:23:19.598Z,65.96
2023-03-24T00:25:50.273Z,66.00
2023-03-24T00:28:20.941Z,65.89
2023-03-24T00:30:55.655Z,65.34
2023-03-24T00:33:26.398Z,65.17
2023-03-24T00:35:58.145Z,65.03
2023-03-24T00:38:29.637Z,64.52
2023-03-24T00:41:00.712Z,64.69
2023-03-24T00:43:32.795Z,64.18
2023-03-24T00:46:11.272Z,64.02
2023-03-24T00:48:42.244Z,64.02
2023-03-24T00:51:12.825Z,63.45
2023-03-24T00:53:44.357Z,63.25
2023-03-24T00:56:15.784Z,63.22
2023-03-24T00:58:46.580Z,63.35
2023-03-24T01:01:22.383Z,63.70
2023-03-24T01:03:53.271Z,64.24
2023-03-24T01:06:25.300Z,64.94
2023-03-24T01:08:56.818Z,65.72
2023-03-24T01:11:29.904Z,66.36
2023-03-24T01:14:00.949Z,67.20
2023-03-24T01:16:34.270Z,68.01
2023-03-24T01:19:05.110Z,68.69
2023-03-24T01:21:37.025Z,69.04
2023-03-24T01:24:09.270Z,69.38
2023-03-24T01:26:40.048Z,68.81
2023-03-24T01:29:10.882Z,68.54
2023-03-24T01:31:44.372Z,68.39
2023-03-24T01:34:15.043Z,68.73
2023-03-24T01:36:45.721Z,68.93
2023-03-24T01:39:16.699Z,68.97
2023-03-24T01:41:47.008Z,69.16
2023-03-24T01:44:30.794Z,69.16
2023-03-24T01:47:06.234Z,68.63
2023-03-24T01:49:41.814Z,67.89
2023-03-24T01:52:21.503Z,67.84
2023-03-24T01:54:56.000Z,67.31
2023-03-24T01:57:34.269Z,67.09
2023-03-24T02:00:12.861Z,67.25
2023-03-24T02:03:10.933Z,67.25
2023-03-24T02:05:54.257Z,66.72
2023-03-24T02:08:33.606Z,66.15
2023-03-24T02:11:05.735Z,65.94
2023-03-24T02:13:46.141Z,65.88
2023-03-24T02:16:37.482Z,65.58
2023-03-24T02:20:01.657Z,65.82
2023-03-24T02:23:17.497Z,65.35
2023-03-24T02:26:31.072Z,65.76
2023-03-24T02:29:26.473Z,65.52
2023-03-24T02:32:30.921Z,65.17
2023-03-24T02:35:42.434Z,65.29
2023-03-24T02:38:49.676Z,65.15
2023-03-24T02:41:30.805Z,64.96
2023-03-24T02:44:08.694Z,65.07
2023-03-24T02:46:48.344Z,65.67
2023-03-24T02:49:33.173Z,66.30
2023-03-24T02:52:08.441Z,66.31
2023-03-24T02:54:50.728Z,66.73
2023-03-24T02:57:33.116Z,67.16
2023-03-24T03:00:32.658Z,67.80
2023-03-24T03:03:17.169Z,67.63
2023-03-24T03:05:55.457Z,68.59
2023-03-24T03:08:27.521Z,69.61
2023-03-24T03:11:00.727Z,70.33
2023-03-24T03:13:39.709Z,71.59
2023-03-24T03:16:17.696Z,72.39
2023-03-24T03:18:55.177Z,74.00
2023-03-24T03:21:29.517Z,74.98
2023-03-24T03:24:11.327Z,74.92
2023-03-24T03:26:43.250Z,76.08
2023-03-24T03:29:22.351Z,76.52
2023-03-24T03:32:00.193Z,76.71
2023-03-24T03:34:41.181Z,77.59
2023-03-24T03:37:19.568Z,77.76
2023-03-24T03:39:56.310Z,77.81
2023-03-24T03:42:28.244Z,77.85
2023-03-24T03:45:02.042Z,77.91
2023-03-24T03:47:34.660Z,77.26
2023-03-24T03:50:07.653Z,77.65
2023-03-24T03:52:39.778Z,76.89
2023-03-24T03:55:12.744Z,76.70
2023-03-24T03:57:46.023Z,76.46
2023-03-24T04:00:31.222Z,75.75
2023-03-24T04:03:44.553Z,74.48
2023-03-24T04:06:25.562Z,74.35
2023-03-24T04:09:04.827Z,73.69
2023-03-24T04:11:59.000Z,73.50
2023-03-24T04:15:15.201Z,73.38
2023-03-24T04:18:29.890Z,72.53
2023-03-24T04:21:38.691Z,72.48
2023-03-24T04:24:29.271Z,72.10
2023-03-24T04:27:14.857Z,72.30
2023-03-24T04:29:58.438Z,73.14
2023-03-24T04:32:41.685Z,72.09
2023-03-24T04:35:26.631Z,71.96
2023-03-24T04:38:23.458Z,71.52
2023-03-24T04:41:03.245Z,71.38
2023-03-24T04:43:37.588Z,71.38
2023-03-24T04:46:12.148Z,71.17
2023-03-24T04:48:52.630Z,71.44
2023-03-24T04:51:38.616Z,71.18
2023-03-24T04:54:26.277Z,71.03
2023-03-24T04:57:06.125Z,70.68
2023-03-24T04:59:43.277Z,70.27
2023-03-24T05:02:14.320Z,70.51
2023-03-24T05:05:01.940Z,70.23
2023-03-24T05:07:44.565Z,69.84
2023-03-24T05:10:21.765Z,69.85
2023-03-24T05:12:57.499Z,69.70
2023-03-24T05:15:31.184Z,69.93
2023-03-24T05:18:20.737Z,69.53
2023-03-24T05:20:51.267Z,69.40
2023-03-24T05:23:26.916Z,69.59
2023-03-24T05:25:58.654Z,69.44
2023-03-24T05:28:31.933Z,69.26
2023-03-24T05:31:02.504Z,69.09
2023-03-24T05:33:44.944Z,69.13
2023-03-24T05:36:19.439Z,68.62
2023-03-24T05:39:00.173Z,68.90
2023-03-24T05:41:44.676Z,68.42
2023-03-24T05:44:15.294Z,68.38
2023-03-24T05:46:49.248Z,68.44
2023-03-24T05:49:19.872Z,68.39
2023-03-24T05:51:50.509Z,68.68
2023-03-24T05:54:24.057Z,68.07
2023-03-24T05:57:01.092Z,67.88
2023-03-24T05:59:36.382Z,67.69
2023-03-24T06:02:23.482Z,67.25
2023-03-24T06:04:59.130Z,66.69
2023-03-24T06:07:31.026Z,66.21
2023-03-24T06:10:07.889Z,65.84
2023-03-24T06:12:48.720Z,65.30
2023-03-24T06:15:19.993Z,64.71
2023-03-24T06:17:55.407Z,64.55
2023-03-24T06:20:36.302Z,64.20
2023-03-24T06:23:19.894Z,64.11
2023-03-24T06:26:04.686Z,63.94
2023-03-24T06:28:36.351Z,63.47
2023-03-24T06:31:18.740Z,63.04
2023-03-24T06:33:50.023Z,62.40
2023-03-24T06:36:21.326Z,62.03
2023-03-24T06:38:51.780Z,62.35
2023-03-24T06:41:27.460Z,62.18
2023-03-24T06:44:02.050Z,61.76
2023-03-24T06:46:32.859Z,61.54
2023-03-24T06:49:03.490Z,61.08
2023-03-24T06:51:33.963Z,60.78
2023-03-24T06:54:04.524Z,60.67
2023-03-24T06:56:37.605Z,60.48
2023-03-24T06:59:09.010Z,60.19
2023-03-24T07:01:40.525Z,59.34
2023-03-24T07:04:36.676Z,59.29
2023-03-24T07:10:19.846Z,58.78
2023-03-24T07:12:53.028Z,58.71
2023-03-24T07:15:23.603Z,58.52
2023-03-24T07:17:54.306Z,58.63
2023-03-24T07:20:41.615Z,57.92
2023-03-24T07:23:17.786Z,58.32
2023-03-24T07:25:49.099Z,58.24
2023-03-24T07:28:28.674Z,58.64
2023-03-24T07:30:59.593Z,58.89
2023-03-24T07:33:30.237Z,58.66
2023-03-24T07:36:00.911Z,59.05
2023-03-24T07:38:31.438Z,59.23
2023-03-24T07:41:07.166Z,58.70
2023-03-24T07:43:43.790Z,58.41
2023-03-24T07:46:23.736Z,58.41
2023-03-24T07:48:54.833Z,57.73
2023-03-24T07:51:25.601Z,57.78
2023-03-24T07:54:22.414Z,58.38
2023-03-24T07:56:53.066Z,59.08
2023-03-24T07:59:27.511Z,59.25
2023-03-24T08:02:20.579Z,59.40
2023-03-24T08:05:14.620Z,59.41
2023-03-24T08:08:14.158Z,59.10
2023-03-24T08:10:46.216Z,59.58
2023-03-24T08:13:17.132Z,59.84
2023-03-24T08:15:50.212Z,59.93
2023-03-24T08:18:21.034Z,59.58
2023-03-24T08:20:51.658Z,59.70
2023-03-24T08:23:22.095Z,60.31
2023-03-24T08:25:53.329Z,59.87
2023-03-24T08:28:24.234Z,60.16
2023-03-24T08:30:57.004Z,59.76
2023-03-24T08:33:27.627Z,59.87
2023-03-24T08:36:01.043Z,59.63
2023-03-24T08:38:33.678Z,59.91
2023-03-24T08:41:07.104Z,60.44
2023-03-24T08:43:39.360Z,60.77
2023-03-24T08:46:14.040Z,61.24
2023-03-24T08:48:44.993Z,62.52
2023-03-24T08:51:16.551Z,62.48
2023-03-24T08:53:47.622Z,63.43
2023-03-24T08:56:18.167Z,61.88
2023-03-24T08:58:51.386Z,60.49
2023-03-24T09:01:25.794Z,59.99
2023-03-24T09:03:56.397Z,59.85
2023-03-24T09:06:27.504Z,59.19
2023-03-24T09:08:58.169Z,56.71
2023-03-24T09:11:28.561Z,58.71
2023-03-24T09:13:59.269Z,58.80
2023-03-24T09:16:32.349Z,58.39
2023-03-24T09:19:02.875Z,58.16
2023-03-24T09:21:33.440Z,57.46
2023-03-24T09:24:03.884Z,56.54
2023-03-24T09:26:34.491Z,55.80
2023-03-24T09:29:04.968Z,56.31
2023-03-24T09:31:38.390Z,56.29
2023-03-24T09:34:08.984Z,55.43
2023-03-24T09:36:39.449Z,53.86
2023-03-24T09:39:09.993Z,54.46
2023-03-24T09:41:41.606Z,55.88
2023-03-24T09:44:25.084Z,55.87
2023-03-24T09:47:03.811Z,55.45
2023-03-24T09:49:39.756Z,55.85
2023-03-24T09:52:13.654Z,56.11
2023-03-24T09:54:51.562Z,55.68
2023-03-24T09:57:27.906Z,54.73
2023-03-24T09:59:58.915Z,54.91
2023-03-24T10:02:33.659Z,54.15
2023-03-24T10:05:04.331Z,52.10
2023-03-24T10:07:40.528Z,51.30
2023-03-24T10:10:27.575Z,51.66
2023-03-24T10:13:08.552Z,48.54
2023-03-24T10:15:47.034Z,48.47
2023-03-24T10:18:34.371Z,50.71
2023-03-24T10:21:12.286Z,50.38
2023-03-24T10:23:50.301Z,50.75
2023-03-24T10:26:39.441Z,52.01
2023-03-24T10:29:26.971Z,53.32
2023-03-24T10:32:04.085Z,54.42
2023-03-24T10:34:39.002Z,56.13
2023-03-24T10:37:09.587Z,56.63
2023-03-24T10:39:44.827Z,57.42
2023-03-24T10:42:28.369Z,58.16
2023-03-24T10:44:59.231Z,58.70
2023-03-24T10:47:32.971Z,59.11
2023-03-24T10:50:14.741Z,60.38
2023-03-24T10:52:51.193Z,60.94
2023-03-24T10:55:24.700Z,61.32
2023-03-24T10:58:01.444Z,62.58
2023-03-24T11:00:34.992Z,62.84
2023-03-24T11:03:11.454Z,62.21
2023-03-24T11:05:47.081Z,61.42
2023-03-24T11:08:31.453Z,60.69
2023-03-24T11:11:02.400Z,60.31
2023-03-24T11:13:35.471Z,59.94
2023-03-24T11:16:15.873Z,59.34
2023-03-24T11:19:00.382Z,58.62
2023-03-24T11:21:36.171Z,57.67
2023-03-24T11:24:15.849Z,58.40
2023-03-24T11:26:52.946Z,58.56
2023-03-24T11:29:28.307Z,58.23
2023-03-24T11:32:01.767Z,58.18
2023-03-24T11:34:39.058Z,57.39
2023-03-24T11:37:16.893Z,56.64
2023-03-24T11:39:47.651Z,56.01
2023-03-24T11:42:19.264Z,56.32
2023-03-24T11:44:53.024Z,57.56
2023-03-24T11:47:33.243Z,58.50
2023-03-24T11:50:21.113Z,58.55
2023-03-24T11:52:58.903Z,58.99
2023-03-24T11:55:39.402Z,60.12
2023-03-24T11:58:21.969Z,61.76
2023-03-24T12:01:00.189Z,62.84
2023-03-24T12:03:57.038Z,65.03
2023-03-24T12:06:39.269Z,66.45
2023-03-24T12:09:25.595Z,67.23
2023-03-24T12:12:24.780Z,67.76
2023-03-24T12:15:27.920Z,67.74
2023-03-24T12:18:12.009Z,68.26
2023-03-24T12:20:50.342Z,68.73
2023-03-24T12:23:29.112Z,70.14
2023-03-24T12:26:21.098Z,70.66
2023-03-24T12:29:15.561Z,70.47
2023-03-24T12:32:23.563Z,72.13
2023-03-24T12:35:27.056Z,73.18
2023-03-24T12:38:11.150Z,71.67
2023-03-24T12:41:20.463Z,70.80
2023-03-24T12:44:05.640Z,70.00
2023-03-24T12:46:48.405Z,69.63
2023-03-24T12:49:36.878Z,67.97
2023-03-24T12:52:32.588Z,67.52
2023-03-24T12:55:12.724Z,67.24
2023-03-24T12:57:52.168Z,67.45
2023-03-24T13:00:30.001Z,67.80
2023-03-24T13:03:04.197Z,68.09
2023-03-24T13:05:37.761Z,67.94
2023-03-24T13:08:16.802Z,68.14
2023-03-24T13:10:48.816Z,69.13
2023-03-24T13:13:27.360Z,68.28
2023-03-24T13:16:01.764Z,65.38
2023-03-24T13:18:37.941Z,63.77
2023-03-24T13:21:14.207Z,65.14
2023-03-24T13:23:55.419Z,65.37
2023-03-24T13:26:41.399Z,66.02
2023-03-24T13:29:41.948Z,72.21
2023-03-24T13:32:31.744Z,77.24
2023-03-24T13:35:13.766Z,81.13
2023-03-24T13:37:51.218Z,84.03
2023-03-24T13:40:28.457Z,85.70
2023-03-24T13:43:01.290Z,88.12
2023-03-24T13:45:44.750Z,90.61
2023-03-24T13:48:29.919Z,92.14
2023-03-24T13:51:03.919Z,91.24
2023-03-24T13:53:42.014Z,91.40
2023-03-24T13:56:15.550Z,91.14
2023-03-24T13:58:54.179Z,91.92
2023-03-24T14:01:49.822Z,90.22
2023-03-24T14:04:31.986Z,88.00
2023-03-24T14:07:31.445Z,87.98
2023-03-24T14:10:04.243Z,89.48
2023-03-24T14:12:36.722Z,88.29
2023-03-24T14:15:18.974Z,88.37
2023-03-24T14:17:57.919Z,88.75
2023-03-24T14:21:02.796Z,87.80
2023-03-24T14:23:40.402Z,89.12
2023-03-24T14:26:16.808Z,88.65
2023-03-24T14:28:49.641Z,88.24
2023-03-24T14:31:27.293Z,87.34
2023-03-24T14:34:11.166Z,88.78
2023-03-24T14:36:44.300Z,87.52
2023-03-24T14:39:29.200Z,89.93
2023-03-24T14:41:59.995Z,90.60
2023-03-24T14:44:58.966Z,90.54
2023-03-24T14:47:32.720Z,91.21
2023-03-24T14:50:20.381Z,91.41
2023-03-24T14:52:57.138Z,92.60
2023-03-24T14:55:29.358Z,92.69
2023-03-24T14:58:05.246Z,91.48
2023-03-24T15:00:47.221Z,91.85
2023-03-24T15:03:32.104Z,91.12
2023-03-24T15:06:17.373Z,91.65
2023-03-24T15:08:53.155Z,90.68
2023-03-24T15:11:28.054Z,89.98
2023-03-24T15:14:00.297Z,87.09
2023-03-24T15:16:33.144Z,88.38
2023-03-24T15:19:09.387Z,88.61
2023-03-24T15:21:49.782Z,87.75
2023-03-24T15:24:32.349Z,86.28
2023-03-24T15:27:29.361Z,85.94
2023-03-24T15:30:02.780Z,84.88
2023-03-24T15:32:39.236Z,86.59
2023-03-24T15:35:16.725Z,87.38
2023-03-24T15:37:56.588Z,86.03
2023-03-24T15:40:41.386Z,86.27
2023-03-24T15:43:23.215Z,87.12
2023-03-24T15:46:05.113Z,87.18
2023-03-24T15:48:42.111Z,85.95
2023-03-24T15:51:15.346Z,86.21
2023-03-24T15:53:52.049Z,85.72
2023-03-24T15:56:29.271Z,86.41
2023-03-24T15:59:16.333Z,86.79
2023-03-24T16:01:50.525Z,87.43
2023-03-24T16:04:23.733Z,88.01
2023-03-24T16:06:57.838Z,88.35
2023-03-24T16:09:41.344Z,87.25
2023-03-24T16:12:14.197Z,86.50
2023-03-24T16:14:44.752Z,85.85
2023-03-24T16:17:15.206Z,86.54
2023-03-24T16:19:45.614Z,86.19
2023-03-24T16:22:16.121Z,84.96
2023-03-24T16:24:49.299Z,84.26
2023-03-24T16:27:20.709Z,84.73
2023-03-24T16:29:51.270Z,82.79
2023-03-24T16:32:21.729Z,83.06
2023-03-24T16:34:52.146Z,82.59
2023-03-24T16:37:22.621Z,81.79
2023-03-24T16:39:55.685Z,81.45
2023-03-24T16:42:26.188Z,82.07
2023-03-24T16:44:56.674Z,82.58
2023-03-24T16:47:27.216Z,82.63
2023-03-24T16:49:57.666Z,81.98
2023-03-24T16:52:28.153Z,81.71
2023-03-24T16:55:01.212Z,82.11
2023-03-24T16:57:31.770Z,81.09
2023-03-24T17:00:03.595Z,80.74
2023-03-24T17:02:34.360Z,81.56
2023-03-24T17:05:05.096Z,82.33
2023-03-24T17:07:35.610Z,82.14
2023-03-24T17:10:09.853Z,82.28
2023-03-24T17:12:40.546Z,82.35
2023-03-24T17:15:19.108Z,81.47
2023-03-24T17:17:49.886Z,80.77
2023-03-24T17:20:21.471Z,80.57
2023-03-24T17:22:54.801Z,79.94
2023-03-24T17:25:29.390Z,80.13
2023-03-24T17:28:00.271Z,80.76
2023-03-24T17:30:32.277Z,80.10
2023-03-24T17:33:02.820Z,81.03
2023-03-24T17:35:33.461Z,80.01
2023-03-24T17:38:04.144Z,80.49
2023-03-24T17:40:37.206Z,80.18
2023-03-24T17:43:07.736Z,79.09
2023-03-24T17:45:38.317Z,78.76
2023-03-24T17:48:09.683Z,78.39
2023-03-24T17:50:40.154Z,78.44
2023-03-24T17:53:13.837Z,78.11
2023-03-24T17:55:46.948Z,78.07
2023-03-24T17:58:17.635Z,77.17
2023-03-24T18:00:48.318Z,76.79
2023-03-24T18:03:19.277Z,76.81
2023-03-24T18:05:50.249Z,76.87
2023-03-24T18:08:22.733Z,75.89
2023-03-24T18:10:55.851Z,75.64
2023-03-24T18:13:28.914Z,74.58
2023-03-24T18:16:06.680Z,74.40
2023-03-24T18:18:45.703Z,73.26
2023-03-24T18:21:16.510Z,73.15
2023-03-24T18:23:47.208Z,72.34
2023-03-24T18:26:22.481Z,71.66
2023-03-24T18:28:53.091Z,71.23
2023-03-24T18:31:26.524Z,70.81
2023-03-24T18:33:58.579Z,70.87
2023-03-24T18:36:29.403Z,70.94
2023-03-24T18:39:04.302Z,70.78
2023-03-24T18:41:38.973Z,70.76
2023-03-24T18:44:14.389Z,70.92
2023-03-24T18:46:45.764Z,71.53
2023-03-24T18:49:17.531Z,71.93
2023-03-24T18:51:48.400Z,72.27
2023-03-24T18:54:18.903Z,72.79
2023-03-24T18:56:52.061Z,72.37
2023-03-24T18:59:22.546Z,72.34
2023-03-24T19:01:53.420Z,72.59
2023-03-24T19:04:24.032Z,72.68
2023-03-24T19:06:54.526Z,72.38
2023-03-24T19:09:25.192Z,72.58
2023-03-24T19:11:58.247Z,73.38
2023-03-24T19:14:29.452Z,74.13
2023-03-24T19:17:02.024Z,74.60
2023-03-24T19:19:32.672Z,74.51
2023-03-24T19:22:04.208Z,75.03
2023-03-24T19:24:34.735Z,75.35
2023-03-24T19:27:08.608Z,75.35
2023-03-24T19:29:39.350Z,75.19
2023-03-24T19:32:09.774Z,75.51
2023-03-24T19:34:40.262Z,76.61
2023-03-24T19:37:11.312Z,76.87
2023-03-24T19:39:41.442Z,77.03
2023-03-24T19:42:14.637Z,77.18
2023-03-24T19:44:45.047Z,77.22
2023-03-24T19:47:15.489Z,77.74
2023-03-24T19:49:46.350Z,77.56
2023-03-24T19:52:16.931Z,77.54
2023-03-24T19:54:47.359Z,77.45
2023-03-24T19:57:20.442Z,77.44
2023-03-24T19:59:51.054Z,77.22
2023-03-24T20:02:24.808Z,77.54
2023-03-24T20:04:56.404Z,77.86
2023-03-24T20:07:27.246Z,77.81
2023-03-24T20:09:57.784Z,77.37
2023-03-24T20:12:31.083Z,77.37
2023-03-24T20:15:02.506Z,77.89
2023-03-24T20:17:37.740Z,78.41
2023-03-24T20:20:10.473Z,78.29
2023-03-24T20:22:44.904Z,78.30
2023-03-24T20:25:18.066Z,77.92
2023-03-24T20:27:51.146Z,77.50
2023-03-24T20:30:24.371Z,77.76
2023-03-24T20:32:59.383Z,77.65
2023-03-24T20:35:30.387Z,78.04
2023-03-24T20:38:00.589Z,78.26
2023-03-24T20:40:31.217Z,79.06
2023-03-24T20:43:04.393Z,79.66
2023-03-24T20:45:34.946Z,79.79
2023-03-24T20:48:05.541Z,79.98
2023-03-24T20:50:36.960Z,80.46
2023-03-24T20:53:07.683Z,80.27
2023-03-24T20:55:38.223Z,80.57
2023-03-24T20:58:11.494Z,80.87
2023-03-24T21:00:46.348Z,81.43
2023-03-24T21:03:17.006Z,81.52
2023-03-24T21:05:47.693Z,81.55
2023-03-24T21:08:18.341Z,82.66
2023-03-24T21:10:48.849Z,83.04
2023-03-24T21:13:21.993Z,82.76
2023-03-24T21:15:52.415Z,82.63
2023-03-24T21:18:22.891Z,83.48
2023-03-24T21:20:56.880Z,83.50
2023-03-24T21:23:28.803Z,84.34
2023-03-24T21:25:59.200Z,84.22
2023-03-24T21:28:33.651Z,84.13
2023-03-24T21:31:11.909Z,83.77
2023-03-24T21:33:43.751Z,84.60
2023-03-24T21:36:15.175Z,84.89
2023-03-24T21:38:49.962Z,85.51
2023-03-24T21:41:21.671Z,85.53
2023-03-24T21:43:55.192Z,85.54
2023-03-24T21:46:27.987Z,85.27
2023-03-24T21:49:00.749Z,85.70
2023-03-24T21:51:34.994Z,86.09
2023-03-24T21:54:09.017Z,86.43
2023-03-24T21:56:40.965Z,86.21
2023-03-24T21:59:14.104Z,85.67
2023-03-24T22:01:44.504Z,85.06
2023-03-24T22:04:15.437Z,85.31
2023-03-24T22:06:47.605Z,84.75
2023-03-24T22:09:19.415Z,85.11
2023-03-24T22:11:50.144Z,84.75
2023-03-24T22:14:23.248Z,83.81
2023-03-24T22:16:53.695Z,83.82
2023-03-24T22:19:24.400Z,83.36
2023-03-24T22:22:01.773Z,83.47
2023-03-24T22:24:32.937Z,82.51
2023-03-24T22:27:03.430Z,81.67
2023-03-24T22:29:36.610Z,80.69
2023-03-24T22:32:07.142Z,80.39
2023-03-24T22:34:37.677Z,80.12
2023-03-24T22:37:08.076Z,79.49
2023-03-24T22:39:41.250Z,79.80
2023-03-24T22:42:11.960Z,80.02
2023-03-24T22:44:45.017Z,79.94
2023-03-24T22:47:15.566Z,79.67
2023-03-24T22:49:46.101Z,79.18
2023-03-24T22:52:16.546Z,79.11
2023-03-24T22:54:47.173Z,79.81
2023-03-24T22:57:17.832Z,79.80
2023-03-24T22:59:50.909Z,80.55
2023-03-24T23:02:24.853Z,80.92
2023-03-24T23:04:55.638Z,80.95
2023-03-24T23:07:28.472Z,81.21
2023-03-24T23:09:59.608Z,80.84
2023-03-24T23:12:30.514Z,80.95
2023-03-24T23:15:04.153Z,80.82
2023-03-24T23:17:34.901Z,79.62
2023-03-24T23:20:08.358Z,79.44
2023-03-24T23:22:39.167Z,79.40
2023-03-24T23:25:10.992Z,79.10
2023-03-24T23:27:41.861Z,78.73
2023-03-24T23:30:18.314Z,78.88
2023-03-24T23:32:49.720Z,78.31
2023-03-24T23:35:20.531Z,78.40
2023-03-24T23:37:50.970Z,78.42
2023-03-24T23:40:21.847Z,77.90
2023-03-24T23:42:52.900Z,78.20
2023-03-24T23:45:25.781Z,77.71
2023-03-24T23:47:56.952Z,77.76
2023-03-24T23:50:29.365Z,77.58
2023-03-24T23:53:00.426Z,77.42
2023-03-24T23:55:30.717Z,76.87
2023-03-24T23:58:01.342Z,77.00
